createdAt,value
2023-05-03T05:08:00.541Z,99220.22
2023-05-03T05:16:11.493Z,99227.56
2023-05-03T05:24:27.747Z,99230.38
2023-05-03T05:26:55.476Z,99230.66
2023-05-03T05:32:54.192Z,99244.34
2023-05-03T05:35:21.752Z,99243.84
2023-05-03T05:37:49.334Z,99243.25
2023-05-03T05:40:16.815Z,99249.28
2023-05-03T05:42:46.307Z,99248.28
2023-05-03T05:45:13.851Z,99248.84
2023-05-03T05:47:41.521Z,99245.22
2023-05-03T05:50:17.748Z,99247.44
2023-05-03T05:52:45.982Z,99241.03
2023-05-03T05:55:14.860Z,99232.00
2023-05-03T05:57:42.372Z,99246.44
2023-05-03T06:00:14.596Z,99234.16
2023-05-03T06:02:42.839Z,99238.19
2023-05-03T06:05:12.038Z,99230.06
2023-05-03T06:07:39.539Z,99227.84
2023-05-03T06:10:08.057Z,99225.84
2023-05-03T06:12:36.768Z,99224.88
2023-05-03T06:15:06.190Z,99232.44
2023-05-03T06:17:34.945Z,99223.19
2023-05-03T06:20:04.887Z,99217.66
2023-05-03T06:22:32.665Z,99220.03
2023-05-03T06:25:00.438Z,99224.31
2023-05-03T06:27:27.879Z,99216.03
2023-05-03T06:29:55.383Z,99223.19
2023-05-03T06:32:23.616Z,99219.16
2023-05-03T06:34:51.259Z,99221.66
2023-05-03T06:37:18.744Z,99228.91
2023-05-03T06:39:46.332Z,99215.44
2023-05-03T06:42:14.002Z,99212.38
2023-05-03T06:44:42.565Z,99212.59
2023-05-03T06:47:10.092Z,99208.91
2023-05-03T06:49:37.740Z,99208.69
2023-05-03T06:52:05.626Z,99203.38
2023-05-03T06:54:33.120Z,99199.25
2023-05-03T06:57:01.887Z,99195.16
2023-05-03T06:59:29.437Z,99192.47
2023-05-03T07:01:57.032Z,99190.00
2023-05-03T07:04:29.672Z,99192.06
2023-05-03T07:06:57.711Z,99195.69
2023-05-03T07:09:41.577Z,99185.03
2023-05-03T07:12:10.941Z,99176.75
2023-05-03T07:14:40.726Z,99175.28
2023-05-03T07:17:09.498Z,99175.94
2023-05-03T07:19:37.657Z,99168.88
2023-05-03T07:22:05.627Z,99174.25
2023-05-03T07:24:33.228Z,99164.31
2023-05-03T07:27:00.711Z,99156.63
2023-05-03T07:29:28.117Z,99150.66
2023-05-03T07:31:55.850Z,99155.72
2023-05-03T07:34:23.341Z,99155.59
2023-05-03T07:36:52.112Z,99159.44
2023-05-03T07:39:19.886Z,99154.28
2023-05-03T07:41:47.402Z,99146.66
2023-05-03T07:44:14.806Z,99151.84
2023-05-03T07:46:42.325Z,99150.38
2023-05-03T07:49:09.741Z,99157.63
2023-05-03T07:51:41.220Z,99156.81
2023-05-03T07:54:08.892Z,99147.16
2023-05-03T07:56:36.588Z,99148.50
2023-05-03T07:59:09.979Z,99144.97
2023-05-03T08:01:38.565Z,99144.88
2023-05-03T08:04:06.588Z,99154.31
2023-05-03T08:06:35.999Z,99144.81
2023-05-03T08:09:04.775Z,99137.44
2023-05-03T08:11:32.782Z,99138.28
2023-05-03T08:14:00.224Z,99148.88
2023-05-03T08:16:27.978Z,99146.47
2023-05-03T08:18:55.578Z,99142.69
2023-05-03T08:21:24.861Z,99141.13
2023-05-03T08:23:52.871Z,99141.66
2023-05-03T08:26:22.317Z,99139.97
2023-05-03T08:28:50.084Z,99140.94
2023-05-03T08:31:17.851Z,99135.84
2023-05-03T08:33:45.800Z,99133.75
2023-05-03T08:36:13.288Z,99135.53
2023-05-03T08:38:41.365Z,99133.00
2023-05-03T08:41:31.171Z,99139.00
2023-05-03T08:44:01.490Z,99134.88
2023-05-03T08:46:29.577Z,99138.25
2023-05-03T08:48:58.882Z,99131.31
2023-05-03T08:51:27.766Z,99140.81
2023-05-03T08:53:55.208Z,99141.66
2023-05-03T08:56:43.917Z,99137.09
2023-05-03T08:59:11.817Z,99152.41
2023-05-03T09:01:42.013Z,99157.03
2023-05-03T09:04:12.440Z,99149.56
2023-05-03T09:06:40.360Z,99152.06
2023-05-03T09:09:08.950Z,99151.38
2023-05-03T09:11:39.381Z,99150.25
2023-05-03T09:14:18.794Z,99142.59
2023-05-03T09:16:47.606Z,99151.88
2023-05-03T09:19:16.778Z,99157.81
2023-05-03T09:21:47.580Z,99154.28
2023-05-03T09:24:22.103Z,99148.00
2023-05-03T09:26:52.880Z,99155.78
2023-05-03T09:29:36.179Z,99148.19
2023-05-03T09:32:06.422Z,99148.78
2023-05-03T09:34:38.391Z,99156.88
2023-05-03T09:37:06.829Z,99151.16
2023-05-03T09:39:36.968Z,99157.47
2023-05-03T09:42:19.285Z,99155.59
2023-05-03T09:44:53.935Z,99151.63
2023-05-03T09:47:21.841Z,99148.47
2023-05-03T09:49:49.377Z,99140.78
2023-05-03T09:52:17.860Z,99136.53
2023-05-03T09:54:46.036Z,99135.56
2023-05-03T09:57:15.145Z,99131.84
2023-05-03T09:59:45.164Z,99131.03
2023-05-03T10:02:12.752Z,99129.50
2023-05-03T10:04:51.977Z,99133.75
2023-05-03T10:07:21.872Z,99128.13
2023-05-03T10:09:49.860Z,99140.41
2023-05-03T10:12:17.980Z,99134.88
2023-05-03T10:14:51.980Z,99124.59
2023-05-03T10:17:47.805Z,99121.50
2023-05-03T10:20:43.940Z,99116.56
2023-05-03T10:23:13.959Z,99117.53
2023-05-03T10:26:07.382Z,99112.22
2023-05-03T10:28:39.865Z,99117.94
2023-05-03T10:31:27.255Z,99116.44
2023-05-03T10:33:54.772Z,99118.22
2023-05-03T10:36:23.561Z,99102.41
2023-05-03T10:38:53.822Z,99098.41
2023-05-03T10:41:27.421Z,99088.56
2023-05-03T10:43:54.864Z,99096.63
2023-05-03T10:46:34.489Z,99090.69
2023-05-03T10:49:37.563Z,99099.91
2023-05-03T10:52:35.991Z,99087.56
2023-05-03T10:55:13.147Z,99090.31
2023-05-03T10:57:46.927Z,99076.84
2023-05-03T11:00:40.580Z,99080.84
2023-05-03T11:04:03.184Z,99077.72
2023-05-03T11:06:36.663Z,99070.91
2023-05-03T11:09:08.318Z,99067.72
2023-05-03T11:11:41.194Z,99066.09
2023-05-03T11:14:11.666Z,99068.06
2023-05-03T11:16:47.731Z,99062.50
2023-05-03T11:19:16.542Z,99048.91
2023-05-03T11:21:46.404Z,99052.34
2023-05-03T11:24:14.436Z,99050.91
2023-05-03T11:26:42.283Z,99050.00
2023-05-03T11:29:11.928Z,99051.16
2023-05-03T11:31:43.302Z,99039.47
2023-05-03T11:34:15.833Z,99033.25
2023-05-03T11:36:43.500Z,99036.50
2023-05-03T11:39:14.549Z,99028.97
2023-05-03T11:41:42.424Z,99035.88
2023-05-03T11:44:17.316Z,99033.50
2023-05-03T11:46:47.512Z,99029.84
2023-05-03T11:49:19.595Z,99030.78
2023-05-03T11:51:50.946Z,99029.38
2023-05-03T11:54:26.397Z,99027.22
2023-05-03T11:56:59.861Z,99022.63
2023-05-03T11:59:40.889Z,99028.44
2023-05-03T12:02:15.234Z,99026.38
2023-05-03T12:04:45.485Z,99028.22
2023-05-03T12:07:16.902Z,99008.31
2023-05-03T12:09:52.696Z,99013.53
2023-05-03T12:12:31.860Z,99015.38
2023-05-03T12:15:04.579Z,99015.53
2023-05-03T12:17:43.515Z,99013.84
2023-05-03T12:23:04.201Z,98996.97
2023-05-03T12:25:34.876Z,98999.41
2023-05-03T12:28:19.668Z,98996.59
2023-05-03T12:30:48.329Z,98984.91
2023-05-03T12:33:17.055Z,98983.75
2023-05-03T12:35:47.800Z,98985.19
2023-05-03T12:38:17.385Z,98978.72
2023-05-03T12:40:47.497Z,98972.28
2023-05-03T12:43:15.421Z,98977.38
2023-05-03T12:45:46.873Z,98976.81
2023-05-03T12:48:20.192Z,98974.00
2023-05-03T12:50:51.481Z,98967.94
2023-05-03T12:53:19.580Z,98968.34
2023-05-03T12:55:51.701Z,98963.16
2023-05-03T13:01:15.911Z,98947.84
2023-05-03T13:03:43.758Z,98956.13
2023-05-03T13:06:14.675Z,98951.19
2023-05-03T13:11:13.205Z,98930.59
2023-05-03T13:13:40.908Z,98927.78
2023-05-03T13:16:09.777Z,98930.66
2023-05-03T13:18:37.607Z,98926.34
2023-05-03T13:21:06.601Z,98921.84
2023-05-03T13:23:34.521Z,98917.28
2023-05-03T13:26:01.957Z,98910.28
2023-05-03T13:28:29.510Z,98904.38
2023-05-03T13:30:57.249Z,98905.91
2023-05-03T13:33:24.802Z,98892.63
2023-05-03T13:35:52.339Z,98875.44
2023-05-03T13:38:19.725Z,98892.97
2023-05-03T13:40:47.327Z,98886.63
2023-05-03T13:43:14.774Z,98886.81
2023-05-03T13:45:42.297Z,98885.91
2023-05-03T13:48:14.812Z,98879.50
2023-05-03T13:50:45.746Z,98883.63
2023-05-03T13:53:13.257Z,98859.41
2023-05-03T13:55:40.749Z,98863.66
2023-05-03T13:58:08.758Z,98865.31
2023-05-03T14:00:36.265Z,98853.66
2023-05-03T14:03:04.543Z,98857.44
2023-05-03T14:05:32.146Z,98852.53
2023-05-03T14:07:59.722Z,98850.78
2023-05-03T14:10:28.131Z,98840.16
2023-05-03T14:12:58.037Z,98835.50
2023-05-03T14:15:25.872Z,98827.78
2023-05-03T14:17:55.263Z,98846.03
2023-05-03T14:20:24.825Z,98839.09
2023-05-03T14:22:52.430Z,98840.34
2023-05-03T14:25:19.942Z,98835.53
2023-05-03T14:27:47.435Z,98838.72
2023-05-03T14:30:15.697Z,98825.78
2023-05-03T14:32:43.373Z,98835.59
2023-05-03T14:35:11.028Z,98823.41
2023-05-03T14:37:38.606Z,98821.03
2023-05-03T14:40:09.941Z,98824.56
2023-05-03T14:42:37.396Z,98812.91
2023-05-03T14:45:08.696Z,98820.13
2023-05-03T14:47:39.040Z,98817.28
2023-05-03T14:50:07.957Z,98810.56
2023-05-03T14:52:36.329Z,98819.06
2023-05-03T14:55:06.921Z,98821.22
2023-05-03T14:57:34.684Z,98813.16
2023-05-03T15:00:07.577Z,98811.66
2023-05-03T15:02:35.599Z,98823.88
2023-05-03T15:05:04.622Z,98817.72
2023-05-03T15:07:32.661Z,98811.16
2023-05-03T15:10:04.282Z,98816.56
2023-05-03T15:12:32.925Z,98813.63
2023-05-03T15:15:00.766Z,98819.69
2023-05-03T15:17:28.238Z,98805.78
2023-05-03T15:19:55.722Z,98815.53
2023-05-03T15:22:23.159Z,98817.59
2023-05-03T15:24:51.003Z,98813.06
2023-05-03T15:27:18.477Z,98812.38
2023-05-03T15:29:46.519Z,98815.47
2023-05-03T15:32:14.245Z,98814.56
2023-05-03T15:34:41.874Z,98818.22
2023-05-03T15:37:12.369Z,98820.44
2023-05-03T15:39:40.082Z,98813.69
2023-05-03T15:42:07.561Z,98815.41
2023-05-03T15:44:34.975Z,98817.56
2023-05-03T15:47:02.748Z,98809.78
2023-05-03T15:49:30.255Z,98807.19
2023-05-03T15:51:58.174Z,98806.50
2023-05-03T15:54:25.658Z,98815.16
2023-05-03T15:56:53.378Z,98810.81
2023-05-03T15:59:20.925Z,98804.47
2023-05-03T16:01:48.694Z,98798.84
2023-05-03T16:04:16.189Z,98808.31
2023-05-03T16:06:43.670Z,98812.03
2023-05-03T16:09:12.582Z,98808.88
2023-05-03T16:11:40.151Z,98807.22
2023-05-03T16:14:09.659Z,98801.53
2023-05-03T16:16:39.229Z,98794.19
2023-05-03T16:19:09.091Z,98797.50
2023-05-03T16:21:36.620Z,98794.19
2023-05-03T16:24:04.900Z,98790.97
2023-05-03T16:26:34.574Z,98785.34
2023-05-03T16:29:02.189Z,98780.06
2023-05-03T16:31:33.149Z,98785.81
2023-05-03T16:34:01.104Z,98779.13
2023-05-03T16:36:28.636Z,98789.19
2023-05-03T16:38:56.050Z,98783.59
2023-05-03T16:41:24.366Z,98778.00
2023-05-03T16:43:52.051Z,98781.00
2023-05-03T16:46:20.442Z,98766.81
2023-05-03T16:48:48.277Z,98778.16
2023-05-03T16:51:21.302Z,98781.84
2023-05-03T16:53:49.564Z,98766.56
2023-05-03T16:56:17.078Z,98772.84
2023-05-03T16:58:44.617Z,98775.88
2023-05-03T17:01:12.283Z,98771.41
2023-05-03T17:03:40.547Z,98767.06
2023-05-03T17:06:08.500Z,98776.53
2023-05-03T17:08:36.151Z,98771.06
2023-05-03T17:11:14.747Z,98776.19
2023-05-03T17:13:42.660Z,98783.25
2023-05-03T17:16:15.298Z,98766.59
2023-05-03T17:18:43.232Z,98783.50
2023-05-03T17:21:11.706Z,98786.09
2023-05-03T17:23:40.033Z,98778.91
2023-05-03T17:26:12.380Z,98781.31
2023-05-03T17:28:40.664Z,98784.94
2023-05-03T17:31:08.547Z,98783.00
2023-05-03T17:33:36.784Z,98777.78
2023-05-03T17:36:05.111Z,98788.25
2023-05-03T17:38:34.664Z,98791.94
2023-05-03T17:41:08.666Z,98791.94
2023-05-03T17:43:37.965Z,98786.16
2023-05-03T17:46:12.736Z,98792.22
2023-05-03T17:48:44.234Z,98787.50
2023-05-03T17:51:14.679Z,98794.19
2023-05-03T17:53:43.184Z,98794.22
2023-05-03T17:56:28.999Z,98793.69
2023-05-03T17:58:56.872Z,98789.78
2023-05-03T18:01:25.836Z,98801.34
2023-05-03T18:03:53.478Z,98803.06
2023-05-03T18:06:21.352Z,98801.94
2023-05-03T18:08:48.870Z,98804.00
2023-05-03T18:11:16.404Z,98801.94
2023-05-03T18:13:45.026Z,98803.84
2023-05-03T18:16:12.470Z,98816.25
2023-05-03T18:18:39.999Z,98817.72
2023-05-03T18:21:07.482Z,98820.25
2023-05-03T18:23:35.408Z,98816.78
2023-05-03T18:26:03.918Z,98820.72
2023-05-03T18:28:31.392Z,98821.72
2023-05-03T18:30:59.140Z,98817.09
2023-05-03T18:33:26.635Z,98821.94
2023-05-03T18:35:54.335Z,98826.03
2023-05-03T18:38:22.020Z,98837.41
2023-05-03T18:40:50.258Z,98833.09
2023-05-03T18:43:17.828Z,98836.44
2023-05-03T18:45:45.767Z,98821.88
2023-05-03T18:48:13.312Z,98838.72
2023-05-03T18:50:43.180Z,98842.72
2023-05-03T18:53:10.942Z,98843.69
2023-05-03T18:55:38.462Z,98847.44
2023-05-03T18:58:05.911Z,98852.09
2023-05-03T19:00:33.482Z,98852.75
2023-05-03T19:03:01.473Z,98849.06
2023-05-03T19:05:29.050Z,98851.00
2023-05-03T19:07:56.521Z,98851.13
2023-05-03T19:10:25.304Z,98860.59
2023-05-03T19:12:53.607Z,98856.16
2023-05-03T19:15:21.321Z,98856.59
2023-05-03T19:17:48.767Z,98855.94
2023-05-03T19:20:17.581Z,98852.88
2023-05-03T19:22:45.196Z,98863.34
2023-05-03T19:25:12.746Z,98856.28
2023-05-03T19:27:40.230Z,98860.06
2023-05-03T19:30:09.643Z,98857.59
2023-05-03T19:32:39.212Z,98865.56
2023-05-03T19:35:10.494Z,98864.91
2023-05-03T19:37:39.071Z,98865.03
2023-05-03T19:40:07.927Z,98879.28
2023-05-03T19:42:35.562Z,98876.09
2023-05-03T19:45:04.914Z,98862.66
2023-05-03T19:47:33.822Z,98865.16
2023-05-03T19:50:01.621Z,98874.91
2023-05-03T19:52:29.305Z,98873.81
2023-05-03T19:54:57.828Z,98868.97
2023-05-03T19:57:25.853Z,98869.56
2023-05-03T19:59:55.917Z,98871.78
2023-05-03T20:02:25.026Z,98873.47
2023-05-03T20:04:52.879Z,98861.59
2023-05-03T20:07:20.555Z,98872.72
2023-05-03T20:09:48.066Z,98864.78
2023-05-03T20:12:15.611Z,98866.03
2023-05-03T20:14:43.123Z,98872.84
2023-05-03T20:17:10.524Z,98872.03
2023-05-03T20:19:38.659Z,98881.63
2023-05-03T20:22:06.196Z,98875.66
2023-05-03T20:24:34.126Z,98877.63
2023-05-03T20:27:02.688Z,98871.59
2023-05-03T20:29:30.266Z,98878.41
2023-05-03T20:31:57.873Z,98881.63
2023-05-03T20:34:25.444Z,98879.66
2023-05-03T20:36:52.946Z,98871.66
2023-05-03T20:39:20.491Z,98872.50
2023-05-03T20:41:47.879Z,98875.63
2023-05-03T20:44:15.377Z,98874.84
2023-05-03T20:46:42.826Z,98874.06
2023-05-03T20:49:10.796Z,98874.47
2023-05-03T20:51:38.288Z,98873.31
2023-05-03T20:54:05.887Z,98859.78
2023-05-03T20:56:33.830Z,98860.56
2023-05-03T20:59:03.471Z,98861.00
2023-05-03T21:01:31.923Z,98853.41
2023-05-03T21:03:59.481Z,98857.38
2023-05-03T21:06:27.844Z,98847.47
2023-05-03T21:08:55.240Z,98845.47
2023-05-03T21:11:22.714Z,98850.69
2023-05-03T21:13:50.234Z,98845.06
2023-05-03T21:16:17.793Z,98848.66
2023-05-03T21:18:45.433Z,98849.06
2023-05-03T21:21:12.978Z,98846.25
2023-05-03T21:23:40.525Z,98840.72
2023-05-03T21:26:08.046Z,98840.72
2023-05-03T21:28:35.725Z,98846.66
2023-05-03T21:31:03.152Z,98847.06
2023-05-03T21:33:30.530Z,98846.28
2023-05-03T21:35:58.161Z,98843.88
2023-05-03T21:38:25.698Z,98851.47
2023-05-03T21:40:53.166Z,98851.03
2023-05-03T21:43:20.621Z,98844.28
2023-05-03T21:45:48.985Z,98839.91
2023-05-03T21:48:16.454Z,98837.09
2023-05-03T21:50:44.750Z,98831.94
2023-05-03T21:53:12.357Z,98836.72
2023-05-03T21:55:39.831Z,98829.56
2023-05-03T21:58:07.281Z,98829.53
2023-05-03T22:00:36.270Z,98825.94
2023-05-03T22:03:04.053Z,98827.94
2023-05-03T22:05:31.806Z,98825.56
2023-05-03T22:08:00.190Z,98836.72
2023-05-03T22:10:28.025Z,98829.13
2023-05-03T22:12:55.556Z,98831.47
2023-05-03T22:15:23.052Z,98832.72
2023-05-03T22:17:50.856Z,98838.66
2023-05-03T22:20:18.411Z,98836.69
2023-05-03T22:22:45.848Z,98832.28
2023-05-03T22:25:27.803Z,98830.31
2023-05-03T22:27:56.527Z,98830.19
2023-05-03T22:30:24.606Z,98827.94
2023-05-03T22:32:52.178Z,98834.19
2023-05-03T22:35:19.942Z,98832.66
2023-05-03T22:37:47.512Z,98829.84
2023-05-03T22:40:14.970Z,98835.06
2023-05-03T22:42:42.483Z,98835.44
2023-05-03T22:45:10.686Z,98834.16
2023-05-03T22:47:38.249Z,98828.59
2023-05-03T22:50:07.685Z,98829.41
2023-05-03T22:52:35.079Z,98830.94
2023-05-03T22:55:04.278Z,98829.38
2023-05-03T22:57:32.293Z,98830.13
2023-05-03T22:59:59.921Z,98827.75
2023-05-03T23:02:27.592Z,98828.97
2023-05-03T23:04:55.160Z,98835.59
2023-05-03T23:07:22.598Z,98828.88
2023-05-03T23:09:50.095Z,98819.00
2023-05-03T23:12:17.569Z,98822.94
2023-05-03T23:14:46.132Z,98829.25
2023-05-03T23:17:13.868Z,98820.13
2023-05-03T23:19:41.747Z,98815.63
2023-05-03T23:22:09.716Z,98812.56
2023-05-03T23:24:37.201Z,98814.94
2023-05-03T23:27:04.629Z,98812.84
2023-05-03T23:29:32.547Z,98816.47
2023-05-03T23:32:00.886Z,98818.34
2023-05-03T23:34:28.675Z,98819.69
2023-05-03T23:36:56.232Z,98825.16
2023-05-03T23:39:23.904Z,98829.53
2023-05-03T23:41:51.396Z,98823.19
2023-05-03T23:44:18.918Z,98822.63
2023-05-03T23:46:46.349Z,98814.78
2023-05-03T23:49:13.830Z,98815.13
2023-05-03T23:51:41.299Z,98819.97
2023-05-03T23:54:08.712Z,98813.91
2023-05-03T23:56:36.240Z,98810.00
2023-05-03T23:59:03.981Z,98811.25
